• Join FlightAware (Why Join?)
  • Login
  • US Flag 
05:04AM EST


 

Airport Tracker/Info


-or-


 

Live Flight TrackerFlight Track Log ✈ SWA1787 ✈ 15-Jun-2013 ✈ KPVD - KTPA

Flight Track Log - Related Links

Times and Time Zones

All times are in EDT time to prevent confusion due to time zone crossing. See the SWA1787 flight status page for this flight to view local times or setup timezone preferences in your user account.

Time Position Orientation Groundspeed Altitude Reporting Facility
EDT Latitude Longitude Course Direction KTS MPH feet Rate Location/Type
04:21PM 41.7103 -71.4361 258° West 164 189 600  Level Boston Center
04:22PM 41.6983 -71.5142 258° West 189 217 3,700 1,560 Climbing Boston Center
04:23PM 41.6950 -71.5950 267° West 233 268 4,000 2,160 Climbing Boston Center
04:25PM 41.7958 -71.7106 320° Northwest 306 352 10,000 2,640 Climbing Boston Center
04:26PM 41.8150 -71.8050 285° West 266 306 12,000 2,700 Climbing Boston Center
04:27PM 41.8325 -71.9275 281° West 324 373 15,400 3,360 Climbing Boston Center
04:28PM 41.8517 -72.0639 281° West 341 392 18,800 2,820 Climbing Boston Center
04:29PM 41.8686 -72.1781 281° West 346 398 21,100 2,640 Climbing Boston Center
04:30PM 41.8878 -72.3231 280° West 359 413 24,100 2,580 Climbing Boston Center
04:31PM 41.9064 -72.4569 281° West 365 420 26,300 1,920 Climbing Boston Center
04:32PM 41.9272 -72.5992 281° West 375 432 28,000 1,560 Climbing Boston Center
04:33PM 41.9081 -72.7386 260° West 369 425 29,500 1,500 Climbing Boston Center
04:34PM 41.8161 -72.8606 225° Southwest 398 458 31,100 1,560 Climbing Boston Center
04:35PM 41.7386 -72.9714 227° Southwest 449 517 32,700 1,500 Climbing Boston Center
04:37PM 41.5442 -73.2297 225° Southwest 448 516 35,700 1,500 Climbing New York Center
04:38PM 41.4519 -73.3564 226° Southwest 457 526 37,300 1,140 Climbing New York Center
04:39PM 41.3639 -73.4747 225° Southwest 457 526 38,000 300 Climbing New York Center
04:40PM 41.2758 -73.5925 225° Southwest 457 526 38,000  Level New York Center
04:41PM 41.1997 -73.7217 232° Southwest 452 520 38,000  Level New York Center
04:42PM 41.1256 -73.8478 232° Southwest 446 513 38,000  Level New York Center
04:43PM 41.0492 -73.9792 232° Southwest 451 519 38,000  Level New York Center
04:44PM 40.9750 -74.1075 233° Southwest 451 519 38,000  Level New York Center
04:45PM 40.8989 -74.2192 228° Southwest 451 519 38,000  Level New York Center
04:46PM 40.8219 -74.3469 232° Southwest 451 519 38,000  Level New York Center
04:47PM 40.7475 -74.4717 232° Southwest 451 519 38,000  Level New York Center
04:48PM 40.6706 -74.5961 231° Southwest 451 519 38,000  Level New York Center
04:49PM 40.5933 -74.7256 232° Southwest 456 525 38,000  Level New York Center
04:50PM 40.5122 -74.8439 228° Southwest 456 525 38,000  Level New York Center
04:51PM 40.4289 -74.9644 228° Southwest 450 518 38,000  Level New York Center
04:52PM 40.3431 -75.0844 227° Southwest 450 518 38,000  Level New York Center
04:53PM 40.2575 -75.2042 227° Southwest 456 525 38,000  Level New York Center
04:54PM 40.1736 -75.3239 227° Southwest 456 525 38,000  Level New York Center
04:55PM 40.0878 -75.4431 227° Southwest 456 525 38,000  Level New York Center
04:56PM 40.0017 -75.5592 226° Southwest 451 519 38,000  Level New York Center
04:57PM 39.9156 -75.6806 227° Southwest 451 519 38,000  Level New York Center
04:59PM 39.7589 -75.9289 231° Southwest 444 511 38,000  Level Washington Center
05:00PM 39.6794 -76.0553 231° Southwest 454 522 38,000  Level Washington Center
05:01PM 39.5997 -76.1814 231° Southwest 454 522 38,000  Level Washington Center
05:02PM 39.5197 -76.3044 230° Southwest 454 522 38,000  Level Washington Center
05:03PM 39.4397 -76.4300 230° Southwest 454 522 38,000  Level Washington Center
05:04PM 39.3492 -76.5631 229° Southwest 454 522 38,000  Level Washington Center
05:05PM 39.2689 -76.6881 230° Southwest 454 522 38,000  Level Washington Center
05:06PM 39.1886 -76.8153 231° Southwest 454 522 38,000  Level Washington Center
05:07PM 39.1081 -76.9397 230° Southwest 454 522 38,000  Level Washington Center
05:08PM 39.0211 -77.0639 228° Southwest 459 528 38,000  Level Washington Center
05:09PM 38.9217 -77.1739 221° Southwest 464 534 38,000  Level Washington Center
05:10PM 38.8392 -77.2600 219° Southwest 472 543 38,000  Level Washington Center
05:11PM 38.7186 -77.3931 221° Southwest 479 551 38,000 480 Level Washington Center
05:12PM 38.6147 -77.5019 219° Southwest 484 557 39,000 960 Climbing Washington Center
05:13PM 38.5192 -77.6083 221° Southwest 479 551 40,000 480 Climbing Washington Center
05:14PM 38.4214 -77.7169 221° Southwest 473 544 40,000  Level Washington Center
05:15PM 38.3256 -77.8228 221° Southwest 465 535 40,000  Level Washington Center
05:16PM 38.2297 -77.9258 220° Southwest 465 535 40,000  Level Washington Center
05:17PM 38.1319 -78.0283 220° Southwest 465 535 40,000  Level Washington Center
05:18PM 38.0358 -78.1306 220° Southwest 465 535 40,000  Level Washington Center
05:19PM 37.9528 -78.2147 219° Southwest 454 522 40,000  Level Washington Center
05:20PM 37.8506 -78.3111 217° Southwest 454 522 40,000  Level Washington Center
05:21PM 37.7481 -78.4072 217° Southwest 459 528 40,000  Level Washington Center
05:22PM 37.6372 -78.5133 217° Southwest 467 537 40,000  Level Washington Center
05:23PM 37.5325 -78.6089 216° Southwest 467 537 40,000  Level Washington Center
05:24PM 37.4322 -78.7042 217° Southwest 467 537 40,000  Level Washington Center
05:25PM 37.3294 -78.8019 217° Southwest 467 537 40,000  Level Washington Center
05:26PM 37.2375 -78.8842 215° Southwest 467 537 40,000  Level Washington Center
05:27PM 37.1367 -78.9789 217° Southwest 467 537 40,000  Level Washington Center
05:28PM 37.0317 -79.0756 216° Southwest 467 537 40,000  Level Washington Center
05:29PM 36.9311 -79.1672 216° Southwest 467 537 40,000  Level Washington Center
05:30PM 36.8172 -79.2736 217° Southwest 467 537 40,000  Level Washington Center
05:31PM 36.7142 -79.3669 216° Southwest 467 537 40,000  Level Washington Center
05:34PM 36.4092 -79.6431 216° Southwest 472 543 40,000  Level Atlanta Center
05:35PM 36.3042 -79.7389 216° Southwest 466 536 40,000  Level Atlanta Center
05:36PM 36.2031 -79.8317 217° Southwest 472 543 40,000  Level Atlanta Center
05:37PM 36.1100 -79.9136 215° Southwest 477 549 40,000  Level Atlanta Center
05:38PM 36.0000 -79.9989 212° Southwest 472 543 40,000  Level Atlanta Center
05:39PM 35.8789 -80.0586 202° Southwest 462 532 40,000  Level Atlanta Center
05:40PM 35.7456 -80.1267 203° Southwest 475 547 40,000  Level Atlanta Center
05:41PM 35.6347 -80.1831 202° Southwest 480 552 40,000  Level Atlanta Center
05:42PM 35.5136 -80.2447 203° Southwest 480 552 40,000  Level Atlanta Center
05:43PM 35.3922 -80.3039 202° Southwest 480 552 40,000  Level Atlanta Center
05:44PM 35.2731 -80.3628 202° Southwest 470 541 40,000  Level Atlanta Center
05:45PM 35.1414 -80.4294 202° Southwest 470 541 40,000  Level Atlanta Center
05:47PM 34.9036 -80.5461 202° Southwest 483 556 40,000  Level Jacksonville Center
05:48PM 34.7919 -80.6047 203° Southwest 478 550 40,000  Level Jacksonville Center
05:49PM 34.6700 -80.6611 201° Southwest 464 534 40,000  Level Jacksonville Center
05:50PM 34.5314 -80.7303 202° Southwest 477 549 40,000  Level Jacksonville Center
05:51PM 34.4094 -80.7986 205° Southwest 474 545 40,000  Level Jacksonville Center
05:52PM 34.2914 -80.8517 200° South 466 536 40,000  Level Jacksonville Center
05:53PM 34.1858 -80.8994 201° Southwest 460 529 40,000  Level Jacksonville Center
05:54PM 34.0656 -80.9497 199° South 460 529 40,000  Level Jacksonville Center
05:55PM 33.9411 -80.9925 196° South 465 535 40,000 -300 Level Jacksonville Center
05:56PM 33.8186 -81.0328 195° South 465 535 39,400 -780 Descending Jacksonville Center
05:57PM 33.6897 -81.0753 195° South 465 535 38,500 -720 Descending Jacksonville Center
05:58PM 33.5569 -81.1181 195° South 484 557 38,000 -300 Descending Jacksonville Center
05:59PM 33.4239 -81.1606 195° South 490 564 38,000  Level Jacksonville Center
06:00PM 33.2931 -81.2028 195° South 490 564 38,000  Level Jacksonville Center
06:01PM 33.1661 -81.2450 196° South 490 564 38,000  Level Jacksonville Center
06:02PM 33.0269 -81.2869 194° South 490 564 38,000  Level Jacksonville Center
06:03PM 32.9022 -81.3289 196° South 478 550 38,000  Level Jacksonville Center
06:04PM 32.7794 -81.3681 195° South 466 536 38,000  Level Jacksonville Center
06:05PM 32.6589 -81.4094 196° South 454 522 38,000  Level Jacksonville Center
06:06PM 32.5403 -81.4486 196° South 454 522 38,000  Level Jacksonville Center
06:07PM 32.4281 -81.4822 194° South 454 522 38,000  Level Jacksonville Center
06:08PM 32.2950 -81.5261 196° South 454 522 38,000  Level Jacksonville Center
06:09PM 32.1722 -81.5647 195° South 456 525 38,000  Level Jacksonville Center
06:10PM 32.0472 -81.6033 195° South 456 525 38,000  Level Jacksonville Center
06:11PM 31.9264 -81.6417 195° South 456 525 38,000  Level Jacksonville Center
06:12PM 31.8161 -81.6750 194° South 456 525 38,000  Level Jacksonville Center
06:13PM 31.6808 -81.7158 194° South 462 532 38,000  Level Jacksonville Center
06:14PM 31.5622 -81.7539 195° South 457 526 38,000  Level Jacksonville Center
06:15PM 31.4497 -81.7894 195° South 452 520 38,000  Level Jacksonville Center
06:16PM 31.3164 -81.8347 196° South 460 529 38,000  Level Jacksonville Center
06:17PM 31.1936 -81.8700 194° South 454 522 38,000  Level Jacksonville Center
06:18PM 31.0728 -81.9078 195° South 449 517 38,000  Level Jacksonville Center
06:19PM 30.9500 -81.9478 196° South 454 522 38,000  Level Jacksonville Center
06:20PM 30.8292 -81.9831 194° South 454 522 38,000  Level Jacksonville Center
06:21PM 30.7103 -82.0203 195° South 454 522 38,000  Level Jacksonville Center
06:22PM 30.5894 -82.0575 195° South 454 522 38,000  Level Jacksonville Center
06:23PM 30.4831 -82.0850 193° South 448 516 38,000  Level Jacksonville Center
06:24PM 30.3664 -82.1197 194° South 448 516 38,000 -120 Level Jacksonville Center
06:25PM 30.2456 -82.1567 195° South 448 516 37,800 -600 Descending Jacksonville Center
06:26PM 30.1267 -82.1914 194° South 448 516 36,800 -1,680 Descending Jacksonville Center
06:27PM 29.9956 -82.2378 197° South 448 516 34,500 -2,340 Descending Jacksonville Center
06:28PM 29.8767 -82.2744 195° South 448 516 32,200 -2,220 Descending Jacksonville Center
06:29PM 29.7725 -82.3039 194° South 448 516 30,100 -2,100 Descending Jacksonville Center
06:30PM 29.6597 -82.3356 194° South 430 495 28,100 -1,740 Descending Jacksonville Center
06:31PM 29.5389 -82.3556 188° South 418 481 26,700 -1,500 Descending Jacksonville Center
06:32PM 29.4239 -82.3419 174° South 407 468 25,200 -1,680 Descending Jacksonville Center
06:33PM 29.3153 -82.3281 174° South 402 463 23,400 -1,860 Descending Jacksonville Center
06:34PM 29.2089 -82.3122 173° South 402 463 21,500 -1,920 Descending Jacksonville Center
06:35PM 29.1003 -82.3008 175° South 397 457 19,600 -1,860 Descending Jacksonville Center
06:36PM 29.0000 -82.2894 174° South 384 442 17,800 -1,800 Descending Jacksonville Center
06:37PM 28.8997 -82.2806 176° South 378 435 16,000 -1,740 Descending Jacksonville Center
06:38PM 28.7333 -82.2667 176° South 342 394 13,000 -1,380 Descending Tampa TRACON
06:39PM 28.6333 -82.2500 172° South 320 368 12,200 -900 Descending Tampa TRACON
06:40PM 28.5833 -82.2667 196° South 315 362 11,500 -1,020 Descending Tampa TRACON
06:41PM 28.5000 -82.3333 215° Southwest 309 356 10,300 -1,080 Descending Tampa TRACON
06:42PM 28.4500 -82.4000 230° Southwest 301 346 9,400 -1,320 Descending Tampa TRACON
06:43PM 28.4000 -82.5000 240° Southwest 291 335 7,600 -1,140 Descending Tampa TRACON
06:44PM 28.3833 -82.5667 254° West 283 326 7,000 -300 Descending Tampa TRACON
06:46PM 28.3167 -82.6500 228° Southwest 283 326 7,000  Level Tampa TRACON
06:47PM 28.2500 -82.6500 180° South 278 320 7,100  Climbing Tampa TRACON
06:48PM 28.1667 -82.6500 180° South 278 320 7,100 -60 Level Tampa TRACON
06:48PM 28.1167 -82.6333 164° South 279 321 7,000 -720 Descending Tampa TRACON
06:49PM 28.0333 -82.6333 180° South 268 308 5,900 -960 Descending Tampa TRACON
06:51PM 27.9500 -82.6333 180° South 231 266 4,900 -900 Descending Tampa TRACON
06:51PM 27.9000 -82.6333 180° South 190 219 4,100 -1,380 Descending Tampa TRACON
06:52PM 27.8667 -82.6000 139° Southeast 165 190 2,600 -1,440 Descending Tampa TRACON
06:53PM 27.9000 -82.5667 41° Northeast 146 168 1,400 -960 Descending Tampa TRACON
06:55PM 27.9333 -82.5500 24° Northeast 142 163 500 -720 Descending Tampa TRACON
06:56PM 27.9667 -82.5167 350° North  Level FlightAware Approximate
07:03PM 27.9755 -82.5332 350° North  Level Estimated
07:04PM 27.9755 -82.5332 350° North  Level Estimated
07:05PM 27.9755 -82.5332 350° North  Level Estimated